PWSweather.com
Personal Weather Stations
Station Observations

SkegnessGB

Lat: 53.147585, Lon: 0.345774

Elevation: 18

Station Type: Fine Offset WH3080

http://www.skegnessweather.info/

High Low Average
Temperature 33.6°F0.9°C 28.0°F-2.2°C 31.2°F-0.4°C
Dew Point 31.7°F-0.2°C 20.0°F-6.7°C 24.8°F-4.0°C
Winds 22.5 mph 36.2 kmh 8.3 mph 13.4 kmh 16.0 mph ESE25.7 kmh ESE
Wind Gusts 26.8 mph43.1 kmh 12.5 mph20.1 kmh 20.0 mph32.2 kmh
Humidity 95% 63% 77%
Pressure 29.86 in1011.2 mb 29.79 in1008.8 mb -
Precipitation 0.01 in0.3 mm - -
Hour Temp Dew Point Humidity Winds Wind Gusts Pressure Precip Precip Rate Daily Precip Total
12:00 AM 33.3°F0.7°C 31.5°F-0.3°C 93% 11.7 mph NE18.8 kmh NE 14.3 mph23.0 kmh 29.79 in1008.8 mb 0.00 in0.0 mm 0.00 in0.0 mm 0.00 in0.0 mm
12:10 AM 32.9°F0.5°C 31.4°F-0.3°C 94% 10.8 mph N17.4 kmh N 16.0 mph25.7 kmh 29.79 in1008.8 mb 0.00 in0.0 mm 0.00 in0.0 mm 0.00 in0.0 mm
12:20 AM 32.7°F0.4°C 31.2°F-0.4°C 94% 10.0 mph NNW16.1 kmh NNW 15.0 mph24.1 kmh 29.79 in1008.8 mb 0.00 in0.0 mm 0.00 in0.0 mm 0.00 in0.0 mm
12:30 AM 32.9°F0.5°C 31.6°F-0.2°C 95% 11.0 mph N17.7 kmh N 15.0 mph24.1 kmh 29.79 in1008.8 mb 0.00 in0.0 mm 0.00 in0.0 mm 0.00 in0.0 mm
12:40 AM 33.1°F0.6°C 31.5°F-0.3°C 94% 12.3 mph N19.8 kmh N 15.0 mph24.1 kmh 29.79 in1008.8 mb 0.00 in0.0 mm 0.00 in0.0 mm 0.00 in0.0 mm
12:50 AM 33.3°F0.7°C 31.7°F-0.2°C 94% 9.8 mph N15.8 kmh N 15.0 mph24.1 kmh 29.80 in1009.1 mb 0.00 in0.0 mm 0.00 in0.0 mm 0.00 in0.0 mm
01:00 AM 33.4°F0.8°C 31.6°F-0.2°C 93% 8.3 mph N13.4 kmh N 12.5 mph20.1 kmh 29.80 in1009.1 mb 0.00 in0.0 mm 0.00 in0.0 mm 0.00 in0.0 mm
01:10 AM 33.6°F0.9°C 31.5°F-0.3°C 92% 10.9 mph N17.5 kmh N 16.0 mph25.7 kmh 29.80 in1009.1 mb 0.00 in0.0 mm 0.00 in0.0 mm 0.00 in0.0 mm
01:20 AM 33.6°F0.9°C 30.2°F-1.0°C 87% 16.2 mph NNE26.1 kmh NNE 20.9 mph33.6 kmh 29.80 in1009.1 mb 0.00 in0.0 mm 0.00 in0.0 mm 0.00 in0.0 mm
01:30 AM 33.6°F0.9°C 29.6°F-1.3°C 85% 15.3 mph NNE24.6 kmh NNE 20.2 mph32.5 kmh 29.81 in1009.5 mb 0.00 in0.0 mm 0.00 in0.0 mm 0.00 in0.0 mm
01:40 AM 33.6°F0.9°C 29.3°F-1.5°C 84% 13.5 mph NE21.7 kmh NE 17.5 mph28.2 kmh 29.81 in1009.5 mb 0.00 in0.0 mm 0.00 in0.0 mm 0.00 in0.0 mm
01:50 AM 33.6°F0.9°C 29.0°F-1.7°C 83% 14.5 mph NE23.3 kmh NE 19.2 mph30.9 kmh 29.81 in1009.5 mb 0.00 in0.0 mm 0.00 in0.0 mm 0.00 in0.0 mm
02:00 AM 33.6°F0.9°C 29.0°F-1.7°C 83% 14.1 mph N22.7 kmh N 19.2 mph30.9 kmh 29.81 in1009.5 mb 0.00 in0.0 mm 0.00 in0.0 mm 0.00 in0.0 mm
02:10 AM 33.4°F0.8°C 28.8°F-1.8°C 83% 13.0 mph NNW20.9 kmh NNW 16.7 mph26.9 kmh 29.82 in1009.8 mb 0.00 in0.0 mm 0.00 in0.0 mm 0.00 in0.0 mm
02:20 AM 33.3°F0.7°C 28.4°F-2.0°C 82% 14.1 mph NNE22.7 kmh NNE 19.2 mph30.9 kmh 29.81 in1009.5 mb 0.00 in0.0 mm 0.00 in0.0 mm 0.00 in0.0 mm
02:30 AM 33.3°F0.7°C 28.4°F-2.0°C 82% 16.9 mph NNE27.2 kmh NNE 18.5 mph29.8 kmh 29.81 in1009.5 mb 0.00 in0.0 mm 0.00 in0.0 mm 0.00 in0.0 mm
02:40 AM 33.1°F0.6°C 28.2°F-2.1°C 82% 16.4 mph NNE26.4 kmh NNE 21.7 mph34.9 kmh 29.81 in1009.5 mb 0.00 in0.0 mm 0.00 in0.0 mm 0.00 in0.0 mm
02:50 AM 33.1°F0.6°C 28.2°F-2.1°C 82% 15.2 mph N24.5 kmh N 20.9 mph33.6 kmh 29.81 in1009.5 mb 0.00 in0.0 mm 0.00 in0.0 mm 0.00 in0.0 mm
03:00 AM 33.1°F0.6°C 27.6°F-2.4°C 80% 16.7 mph N26.9 kmh N 19.2 mph30.9 kmh 29.81 in1009.5 mb 0.00 in0.0 mm 0.00 in0.0 mm 0.00 in0.0 mm
03:10 AM 33.1°F0.6°C 27.6°F-2.4°C 80% 17.2 mph NE27.7 kmh NE 17.5 mph28.2 kmh 29.82 in1009.8 mb 0.00 in0.0 mm 0.00 in0.0 mm 0.00 in0.0 mm
03:20 AM 33.1°F0.6°C 27.6°F-2.4°C 80% 14.7 mph N23.7 kmh N 19.2 mph30.9 kmh 29.81 in1009.5 mb 0.00 in0.0 mm 0.00 in0.0 mm 0.00 in0.0 mm
03:30 AM 33.1°F0.6°C 27.9°F-2.3°C 81% 13.5 mph NE21.7 kmh NE 16.7 mph26.9 kmh 29.81 in1009.5 mb 0.00 in0.0 mm 0.00 in0.0 mm 0.00 in0.0 mm
03:40 AM 32.9°F0.5°C 27.7°F-2.4°C 81% 15.9 mph NE25.6 kmh NE 19.2 mph30.9 kmh 29.82 in1009.8 mb 0.00 in0.0 mm 0.00 in0.0 mm 0.00 in0.0 mm
03:50 AM 32.9°F0.5°C 27.7°F-2.4°C 81% 16.1 mph N25.9 kmh N 20.2 mph32.5 kmh 29.81 in1009.5 mb 0.00 in0.0 mm 0.00 in0.0 mm 0.00 in0.0 mm
04:00 AM 32.9°F0.5°C 26.5°F-3.1°C 77% 15.8 mph NNE25.4 kmh NNE 16.7 mph26.9 kmh 29.82 in1009.8 mb 0.00 in0.0 mm 0.00 in0.0 mm 0.00 in0.0 mm
04:10 AM 32.9°F0.5°C 26.5°F-3.1°C 77% 15.4 mph N24.8 kmh N 19.2 mph30.9 kmh 29.82 in1009.8 mb 0.00 in0.0 mm 0.00 in0.0 mm 0.00 in0.0 mm
04:20 AM 32.9°F0.5°C 26.8°F-2.9°C 78% 14.0 mph N22.5 kmh N 16.0 mph25.7 kmh 29.83 in1010.2 mb 0.00 in0.0 mm 0.00 in0.0 mm 0.00 in0.0 mm
04:30 AM 32.7°F0.4°C 26.3°F-3.2°C 77% 15.3 mph NE24.6 kmh NE 16.7 mph26.9 kmh 29.83 in1010.2 mb 0.00 in0.0 mm 0.00 in0.0 mm 0.00 in0.0 mm
04:40 AM 32.5°F0.3°C 25.8°F-3.4°C 76% 15.8 mph N25.4 kmh N 18.5 mph29.8 kmh 29.82 in1009.8 mb 0.00 in0.0 mm 0.00 in0.0 mm 0.00 in0.0 mm
04:50 AM 32.5°F0.3°C 25.8°F-3.4°C 76% 17.1 mph ENE27.5 kmh ENE 20.9 mph33.6 kmh 29.82 in1009.8 mb 0.00 in0.0 mm 0.00 in0.0 mm 0.00 in0.0 mm
05:00 AM 32.5°F0.3°C 26.1°F-3.3°C 77% 13.9 mph N22.4 kmh N 20.9 mph33.6 kmh 29.83 in1010.2 mb 0.00 in0.0 mm 0.00 in0.0 mm 0.00 in0.0 mm
05:10 AM 32.4°F0.2°C 25.6°F-3.6°C 76% 18.9 mph N30.4 kmh N 16.7 mph26.9 kmh 29.83 in1010.2 mb 0.00 in0.0 mm 0.00 in0.0 mm 0.00 in0.0 mm
05:20 AM 32.2°F0.1°C 25.1°F-3.8°C 75% 15.4 mph NNE24.8 kmh NNE 18.5 mph29.8 kmh 29.83 in1010.2 mb 0.00 in0.0 mm 0.00 in0.0 mm 0.00 in0.0 mm
05:30 AM 32.4°F0.2°C 25.0°F-3.9°C 74% 16.4 mph NE26.4 kmh NE 16.0 mph25.7 kmh 29.84 in1010.5 mb 0.00 in0.0 mm 0.00 in0.0 mm 0.00 in0.0 mm
05:40 AM 32.2°F0.1°C 25.1°F-3.8°C 75% 18.6 mph N29.9 kmh N 20.2 mph32.5 kmh 29.84 in1010.5 mb 0.00 in0.0 mm 0.00 in0.0 mm 0.00 in0.0 mm
05:50 AM 32.2°F0.1°C 25.5°F-3.6°C 76% 15.2 mph NNE24.5 kmh NNE 17.5 mph28.2 kmh 29.84 in1010.5 mb 0.00 in0.0 mm 0.00 in0.0 mm 0.00 in0.0 mm
06:00 AM 32.2°F0.1°C 24.5°F-4.2°C 73% 15.8 mph NNE25.4 kmh NNE 17.5 mph28.2 kmh 29.84 in1010.5 mb 0.00 in0.0 mm 0.00 in0.0 mm 0.00 in0.0 mm
06:10 AM 31.8°F-0.1°C 25.1°F-3.8°C 76% 16.9 mph NNE27.2 kmh NNE 17.5 mph28.2 kmh 29.84 in1010.5 mb 0.00 in0.0 mm 0.00 in0.0 mm 0.00 in0.0 mm
06:20 AM 31.8°F-0.1°C 24.8°F-4.0°C 75% 15.8 mph N25.4 kmh N 18.5 mph29.8 kmh 29.84 in1010.5 mb 0.00 in0.0 mm 0.00 in0.0 mm 0.00 in0.0 mm
06:30 AM 32.0°F0.0°C 24.0°F-4.4°C 72% 17.5 mph N28.2 kmh N 16.7 mph26.9 kmh 29.84 in1010.5 mb 0.00 in0.0 mm 0.00 in0.0 mm 0.00 in0.0 mm
06:40 AM 31.6°F-0.2°C 24.3°F-4.3°C 74% 18.0 mph N29.0 kmh N 20.9 mph33.6 kmh 29.84 in1010.5 mb 0.00 in0.0 mm 0.00 in0.0 mm 0.00 in0.0 mm
06:50 AM 31.3°F-0.4°C 24.0°F-4.4°C 74% 17.1 mph N27.5 kmh N 20.2 mph32.5 kmh 29.84 in1010.5 mb 0.00 in0.0 mm 0.00 in0.0 mm 0.00 in0.0 mm
07:00 AM 31.5°F-0.3°C 22.8°F-5.1°C 70% 17.6 mph N28.3 kmh N 20.2 mph32.5 kmh 29.84 in1010.5 mb 0.00 in0.0 mm 0.00 in0.0 mm 0.00 in0.0 mm
07:10 AM 31.5°F-0.3°C 22.5°F-5.3°C 69% 18.8 mph NE30.3 kmh NE 19.2 mph30.9 kmh 29.85 in1010.8 mb 0.00 in0.0 mm 0.00 in0.0 mm 0.00 in0.0 mm
07:20 AM 31.5°F-0.3°C 23.5°F-4.7°C 72% 16.1 mph N25.9 kmh N 18.5 mph29.8 kmh 29.86 in1011.2 mb 0.00 in0.0 mm 0.00 in0.0 mm 0.00 in0.0 mm
07:30 AM 31.3°F-0.4°C 24.0°F-4.4°C 74% 20.9 mph NE33.6 kmh NE 20.9 mph33.6 kmh 29.85 in1010.8 mb 0.00 in0.0 mm 0.00 in0.0 mm 0.00 in0.0 mm
07:40 AM 30.9°F-0.6°C 23.6°F-4.7°C 74% 15.7 mph NE25.3 kmh NE 16.7 mph26.9 kmh 29.86 in1011.2 mb 0.00 in0.0 mm 0.00 in0.0 mm 0.00 in0.0 mm
07:50 AM 31.3°F-0.4°C 23.3°F-4.8°C 72% 15.4 mph NE24.8 kmh NE 23.4 mph37.7 kmh 29.86 in1011.2 mb 0.00 in0.0 mm 0.00 in0.0 mm 0.00 in0.0 mm
08:00 AM 30.9°F-0.6°C 23.0°F-5.0°C 72% 14.8 mph NE23.8 kmh NE 16.7 mph26.9 kmh 29.86 in1011.2 mb 0.00 in0.0 mm 0.00 in0.0 mm 0.00 in0.0 mm
08:10 AM 31.3°F-0.4°C 23.3°F-4.8°C 72% 14.8 mph N23.8 kmh N 16.7 mph26.9 kmh 29.86 in1011.2 mb 0.00 in0.0 mm 0.00 in0.0 mm 0.00 in0.0 mm
08:20 AM 31.5°F-0.3°C 23.5°F-4.7°C 72% 15.1 mph N24.3 kmh N 16.7 mph26.9 kmh 29.86 in1011.2 mb 0.00 in0.0 mm 0.00 in0.0 mm 0.00 in0.0 mm
08:30 AM 31.8°F-0.1°C 24.1°F-4.4°C 73% 12.3 mph NNE19.8 kmh NNE 15.0 mph24.1 kmh 29.85 in1010.8 mb 0.00 in0.0 mm 0.00 in0.0 mm 0.00 in0.0 mm
08:40 AM 31.6°F-0.2°C 24.3°F-4.3°C 74% 14.2 mph N22.9 kmh N 16.0 mph25.7 kmh 29.85 in1010.8 mb 0.00 in0.0 mm 0.00 in0.0 mm 0.00 in0.0 mm
08:50 AM 31.1°F-0.5°C 24.4°F-4.2°C 76% 12.2 mph N19.6 kmh N 19.2 mph30.9 kmh 29.86 in1011.2 mb 0.00 in0.0 mm 0.00 in0.0 mm 0.00 in0.0 mm
09:00 AM 31.1°F-0.5°C 23.1°F-4.9°C 72% 15.9 mph NE25.6 kmh NE 23.4 mph37.7 kmh 29.86 in1011.2 mb 0.00 in0.0 mm 0.00 in0.0 mm 0.00 in0.0 mm
09:10 AM 30.9°F-0.6°C 23.0°F-5.0°C 72% 17.8 mph NW28.6 kmh NW 23.4 mph37.7 kmh 29.86 in1011.2 mb 0.00 in0.0 mm 0.00 in0.0 mm 0.00 in0.0 mm
09:20 AM 31.5°F-0.3°C 22.5°F-5.3°C 69% 17.4 mph NNE28.0 kmh NNE 22.6 mph36.4 kmh 29.86 in1011.2 mb 0.00 in0.0 mm 0.00 in0.0 mm 0.00 in0.0 mm
09:30 AM 31.6°F-0.2°C 21.9°F-5.6°C 67% 14.7 mph N23.7 kmh N 16.7 mph26.9 kmh 29.86 in1011.2 mb 0.00 in0.0 mm 0.00 in0.0 mm 0.00 in0.0 mm
09:40 AM 31.6°F-0.2°C 22.3°F-5.4°C 68% 15.0 mph N24.1 kmh N 20.9 mph33.6 kmh 29.86 in1011.2 mb 0.00 in0.0 mm 0.00 in0.0 mm 0.00 in0.0 mm
09:50 AM 31.6°F-0.2°C 23.3°F-4.8°C 71% 13.2 mph N21.2 kmh N 17.5 mph28.2 kmh 29.86 in1011.2 mb 0.00 in0.0 mm 0.00 in0.0 mm 0.00 in0.0 mm
10:00 AM 31.1°F-0.5°C 23.1°F-4.9°C 72% 12.6 mph N20.3 kmh N 17.5 mph28.2 kmh 29.86 in1011.2 mb 0.00 in0.0 mm 0.00 in0.0 mm 0.00 in0.0 mm
10:10 AM 32.0°F0.0°C 22.6°F-5.2°C 68% 13.6 mph N21.9 kmh N 18.5 mph29.8 kmh 29.86 in1011.2 mb 0.00 in0.0 mm 0.00 in0.0 mm 0.00 in0.0 mm
10:20 AM 31.6°F-0.2°C 22.3°F-5.4°C 68% 15.6 mph NNE25.1 kmh NNE 19.2 mph30.9 kmh 29.86 in1011.2 mb 0.01 in0.3 mm 0.06 in1.5 mm 0.01 in0.3 mm
10:30 AM 30.9°F-0.6°C 23.6°F-4.7°C 74% 17.9 mph N28.8 kmh N 23.4 mph37.7 kmh 29.86 in1011.2 mb 0.01 in0.3 mm 0.00 in0.0 mm 0.01 in0.3 mm
10:40 AM 30.7°F-0.7°C 23.8°F-4.6°C 75% 15.9 mph NE25.6 kmh NE 17.5 mph28.2 kmh 29.86 in1011.2 mb 0.01 in0.3 mm 0.00 in0.0 mm 0.01 in0.3 mm
10:50 AM 31.1°F-0.5°C 24.7°F-4.1°C 77% 15.7 mph N25.3 kmh N 17.5 mph28.2 kmh 29.86 in1011.2 mb 0.01 in0.3 mm 0.00 in0.0 mm 0.01 in0.3 mm
11:00 AM 29.8°F-1.2°C 25.0°F-3.9°C 82% 15.3 mph N24.6 kmh N 20.9 mph33.6 kmh 29.86 in1011.2 mb 0.01 in0.3 mm 0.00 in0.0 mm 0.01 in0.3 mm
11:10 AM 30.4°F-0.9°C 25.5°F-3.6°C 82% 17.8 mph N28.6 kmh N 17.5 mph28.2 kmh 29.86 in1011.2 mb 0.01 in0.3 mm 0.00 in0.0 mm 0.01 in0.3 mm
11:20 AM 29.7°F-1.3°C 26.3°F-3.2°C 87% 14.8 mph NNE23.8 kmh NNE 17.5 mph28.2 kmh 29.86 in1011.2 mb 0.00 in0.0 mm 0.00 in0.0 mm 0.01 in0.3 mm
11:30 AM 31.1°F-0.5°C 26.5°F-3.1°C 83% 13.8 mph N22.2 kmh N 19.2 mph30.9 kmh 29.85 in1010.8 mb 0.00 in0.0 mm 0.00 in0.0 mm 0.01 in0.3 mm
11:40 AM 31.1°F-0.5°C 25.3°F-3.7°C 79% 16.2 mph N26.1 kmh N 16.0 mph25.7 kmh 29.86 in1011.2 mb 0.00 in0.0 mm 0.00 in0.0 mm 0.01 in0.3 mm
11:50 AM 29.7°F-1.3°C 24.8°F-4.0°C 82% 18.4 mph NE29.6 kmh NE 25.1 mph40.4 kmh 29.85 in1010.8 mb 0.00 in0.0 mm 0.00 in0.0 mm 0.01 in0.3 mm
12:00 PM 32.2°F0.1°C 24.5°F-4.2°C 73% 16.3 mph NNE26.2 kmh NNE 18.5 mph29.8 kmh 29.85 in1010.8 mb 0.00 in0.0 mm 0.00 in0.0 mm 0.01 in0.3 mm
12:10 PM 33.1°F0.6°C 25.0°F-3.9°C 72% 16.5 mph NNE26.6 kmh NNE 23.4 mph37.7 kmh 29.85 in1010.8 mb 0.00 in0.0 mm 0.00 in0.0 mm 0.01 in0.3 mm
12:20 PM 30.6°F-0.8°C 23.3°F-4.8°C 74% 18.3 mph NE29.5 kmh NE 23.4 mph37.7 kmh 29.85 in1010.8 mb 0.00 in0.0 mm 0.00 in0.0 mm 0.01 in0.3 mm
12:30 PM 30.4°F-0.9°C 23.7°F-4.6°C 76% 16.3 mph N26.2 kmh N 16.7 mph26.9 kmh 29.84 in1010.5 mb 0.00 in0.0 mm 0.00 in0.0 mm 0.01 in0.3 mm
12:40 PM 29.5°F-1.4°C 25.2°F-3.8°C 84% 19.1 mph NE30.7 kmh NE 20.9 mph33.6 kmh 29.84 in1010.5 mb 0.00 in0.0 mm 0.00 in0.0 mm 0.01 in0.3 mm
12:50 PM 31.6°F-0.2°C 26.8°F-2.9°C 82% 15.1 mph NE24.3 kmh NE 20.9 mph33.6 kmh 29.84 in1010.5 mb 0.00 in0.0 mm 0.00 in0.0 mm 0.01 in0.3 mm
01:00 PM 31.1°F-0.5°C 24.1°F-4.4°C 75% 16.2 mph NNE26.1 kmh NNE 21.7 mph34.9 kmh 29.85 in1010.8 mb 0.00 in0.0 mm 0.00 in0.0 mm 0.01 in0.3 mm
01:10 PM 30.2°F-1.0°C 22.3°F-5.4°C 72% 18.5 mph NW29.8 kmh NW 23.4 mph37.7 kmh 29.84 in1010.5 mb 0.00 in0.0 mm 0.00 in0.0 mm 0.01 in0.3 mm
01:20 PM 32.5°F0.3°C 24.2°F-4.3°C 71% 15.8 mph N25.4 kmh N 20.2 mph32.5 kmh 29.83 in1010.2 mb 0.00 in0.0 mm 0.00 in0.0 mm 0.01 in0.3 mm
01:30 PM 31.8°F-0.1°C 22.1°F-5.5°C 67% 17.1 mph NNE27.5 kmh NNE 20.2 mph32.5 kmh 29.83 in1010.2 mb 0.00 in0.0 mm 0.00 in0.0 mm 0.01 in0.3 mm
01:40 PM 32.7°F0.4°C 23.3°F-4.8°C 68% 15.3 mph N24.6 kmh N 18.5 mph29.8 kmh 29.83 in1010.2 mb 0.00 in0.0 mm 0.00 in0.0 mm 0.01 in0.3 mm
01:50 PM 32.5°F0.3°C 21.7°F-5.7°C 64% 16.6 mph NNE26.7 kmh NNE 21.7 mph34.9 kmh 29.82 in1009.8 mb 0.00 in0.0 mm 0.00 in0.0 mm 0.01 in0.3 mm
02:00 PM 32.2°F0.1°C 21.4°F-5.9°C 64% 16.3 mph N26.2 kmh N 24.4 mph39.3 kmh 29.82 in1009.8 mb 0.00 in0.0 mm 0.00 in0.0 mm 0.01 in0.3 mm
02:10 PM 31.3°F-0.4°C 23.3°F-4.8°C 72% 17.7 mph N28.5 kmh N 20.2 mph32.5 kmh 29.84 in1010.5 mb 0.00 in0.0 mm 0.00 in0.0 mm 0.01 in0.3 mm
02:20 PM 28.0°F-2.2°C 24.1°F-4.4°C 85% 19.7 mph NNE31.7 kmh NNE 22.6 mph36.4 kmh 29.82 in1009.8 mb 0.00 in0.0 mm 0.00 in0.0 mm 0.01 in0.3 mm
02:30 PM 29.3°F-1.5°C 25.4°F-3.7°C 85% 15.1 mph NNE24.3 kmh NNE 17.5 mph28.2 kmh 29.82 in1009.8 mb 0.00 in0.0 mm 0.00 in0.0 mm 0.01 in0.3 mm
02:40 PM 30.6°F-0.8°C 22.9°F-5.1°C 73% 19.1 mph NNW30.7 kmh NNW 25.8 mph41.5 kmh 29.82 in1009.8 mb 0.00 in0.0 mm 0.00 in0.0 mm 0.01 in0.3 mm
02:50 PM 31.8°F-0.1°C 23.8°F-4.6°C 72% 17.1 mph NE27.5 kmh NE 19.2 mph30.9 kmh 29.81 in1009.5 mb 0.00 in0.0 mm 0.00 in0.0 mm 0.01 in0.3 mm
03:00 PM 31.8°F-0.1°C 23.8°F-4.6°C 72% 15.9 mph N25.6 kmh N 21.7 mph34.9 kmh 29.81 in1009.5 mb 0.00 in0.0 mm 0.00 in0.0 mm 0.01 in0.3 mm
03:10 PM 30.4°F-0.9°C 23.1°F-4.9°C 74% 9.6 mph N15.4 kmh N 15.0 mph24.1 kmh 29.82 in1009.8 mb 0.00 in0.0 mm 0.00 in0.0 mm 0.01 in0.3 mm
03:20 PM 30.9°F-0.6°C 23.3°F-4.8°C 73% 16.8 mph NE27.0 kmh NE 20.2 mph32.5 kmh 29.81 in1009.5 mb 0.00 in0.0 mm 0.00 in0.0 mm 0.01 in0.3 mm
03:30 PM 31.5°F-0.3°C 22.5°F-5.3°C 69% 19.1 mph NNE30.7 kmh NNE 23.4 mph37.7 kmh 29.80 in1009.1 mb 0.00 in0.0 mm 0.00 in0.0 mm 0.01 in0.3 mm
03:40 PM 30.4°F-0.9°C 22.8°F-5.1°C 73% 19.7 mph N31.7 kmh N 21.7 mph34.9 kmh 29.80 in1009.1 mb 0.00 in0.0 mm 0.00 in0.0 mm 0.01 in0.3 mm
03:50 PM 31.1°F-0.5°C 22.1°F-5.5°C 69% 17.5 mph NNE28.2 kmh NNE 21.7 mph34.9 kmh 29.80 in1009.1 mb 0.00 in0.0 mm 0.00 in0.0 mm 0.01 in0.3 mm
04:00 PM 31.3°F-0.4°C 22.6°F-5.2°C 70% 17.5 mph NNE28.2 kmh NNE 25.8 mph41.5 kmh 29.80 in1009.1 mb 0.00 in0.0 mm 0.00 in0.0 mm 0.01 in0.3 mm
04:10 PM 31.3°F-0.4°C 22.6°F-5.2°C 70% 17.1 mph NE27.5 kmh NE 26.8 mph43.1 kmh 29.80 in1009.1 mb 0.00 in0.0 mm 0.00 in0.0 mm 0.01 in0.3 mm
04:20 PM 30.6°F-0.8°C 22.9°F-5.1°C 73% 16.5 mph NNE26.6 kmh NNE 21.7 mph34.9 kmh 29.80 in1009.1 mb 0.00 in0.0 mm 0.00 in0.0 mm 0.01 in0.3 mm
04:30 PM 31.1°F-0.5°C 22.5°F-5.3°C 70% 17.6 mph NNE28.3 kmh NNE 19.2 mph30.9 kmh 29.80 in1009.1 mb 0.00 in0.0 mm 0.00 in0.0 mm 0.01 in0.3 mm
04:40 PM 31.3°F-0.4°C 22.6°F-5.2°C 70% 17.7 mph N28.5 kmh N 20.2 mph32.5 kmh 29.80 in1009.1 mb 0.00 in0.0 mm 0.00 in0.0 mm 0.01 in0.3 mm
04:50 PM 31.3°F-0.4°C 22.3°F-5.4°C 69% 17.8 mph N28.6 kmh N 25.1 mph40.4 kmh 29.80 in1009.1 mb 0.00 in0.0 mm 0.00 in0.0 mm 0.01 in0.3 mm
05:00 PM 31.1°F-0.5°C 21.1°F-6.1°C 66% 16.9 mph NNE27.2 kmh NNE 20.9 mph33.6 kmh 29.80 in1009.1 mb 0.00 in0.0 mm 0.00 in0.0 mm 0.01 in0.3 mm
05:10 PM 29.8°F-1.2°C 22.6°F-5.2°C 74% 12.2 mph NE19.6 kmh NE 15.0 mph24.1 kmh 29.80 in1009.1 mb 0.00 in0.0 mm 0.00 in0.0 mm 0.01 in0.3 mm
05:20 PM 30.7°F-0.7°C 22.8°F-5.1°C 72% 15.1 mph NE24.3 kmh NE 23.4 mph37.7 kmh 29.80 in1009.1 mb 0.00 in0.0 mm 0.00 in0.0 mm 0.01 in0.3 mm
05:30 PM 31.1°F-0.5°C 20.0°F-6.7°C 63% 18.3 mph NNE29.5 kmh NNE 25.1 mph40.4 kmh 29.80 in1009.1 mb 0.00 in0.0 mm 0.00 in0.0 mm 0.01 in0.3 mm
05:40 PM 30.6°F-0.8°C 21.6°F-5.8°C 69% 18.9 mph N30.4 kmh N 22.6 mph36.4 kmh 29.81 in1009.5 mb 0.00 in0.0 mm 0.00 in0.0 mm 0.01 in0.3 mm
05:50 PM 30.7°F-0.7°C 21.8°F-5.7°C 69% 15.6 mph N25.1 kmh N 22.6 mph36.4 kmh 29.81 in1009.5 mb 0.00 in0.0 mm 0.00 in0.0 mm 0.01 in0.3 mm
06:00 PM 31.3°F-0.4°C 22.3°F-5.4°C 69% 17.5 mph NE28.2 kmh NE 21.7 mph34.9 kmh 29.80 in1009.1 mb 0.00 in0.0 mm 0.00 in0.0 mm 0.01 in0.3 mm
06:10 PM 30.9°F-0.6°C 21.9°F-5.6°C 69% 19.1 mph NE30.7 kmh NE 20.2 mph32.5 kmh 29.81 in1009.5 mb 0.00 in0.0 mm 0.00 in0.0 mm 0.01 in0.3 mm
06:20 PM 31.3°F-0.4°C 20.9°F-6.2°C 65% 16.2 mph N26.1 kmh N 26.8 mph43.1 kmh 29.80 in1009.1 mb 0.00 in0.0 mm 0.00 in0.0 mm 0.01 in0.3 mm
06:30 PM 30.7°F-0.7°C 21.8°F-5.7°C 69% 17.9 mph N28.8 kmh N 26.8 mph43.1 kmh 29.81 in1009.5 mb 0.00 in0.0 mm 0.00 in0.0 mm 0.01 in0.3 mm
06:40 PM 30.2°F-1.0°C 22.3°F-5.4°C 72% 17.7 mph NNE28.5 kmh NNE 20.9 mph33.6 kmh 29.81 in1009.5 mb 0.00 in0.0 mm 0.00 in0.0 mm 0.01 in0.3 mm
06:50 PM 29.3°F-1.5°C 23.6°F-4.7°C 79% 16.3 mph NE26.2 kmh NE 22.6 mph36.4 kmh 29.82 in1009.8 mb 0.00 in0.0 mm 0.00 in0.0 mm 0.01 in0.3 mm
07:00 PM 29.8°F-1.2°C 23.2°F-4.9°C 76% 18.0 mph NE29.0 kmh NE 26.8 mph43.1 kmh 29.81 in1009.5 mb 0.00 in0.0 mm 0.00 in0.0 mm 0.01 in0.3 mm
07:10 PM 30.0°F-1.1°C 23.1°F-4.9°C 75% 22.5 mph NNE36.2 kmh NNE 26.8 mph43.1 kmh 29.81 in1009.5 mb 0.00 in0.0 mm 0.00 in0.0 mm 0.01 in0.3 mm
07:20 PM 29.1°F-1.6°C 25.2°F-3.8°C 85% 18.4 mph NE29.6 kmh NE 20.9 mph33.6 kmh 29.81 in1009.5 mb 0.00 in0.0 mm 0.00 in0.0 mm 0.01 in0.3 mm
07:30 PM 29.8°F-1.2°C 25.0°F-3.9°C 82% 15.9 mph NNE25.6 kmh NNE 20.9 mph33.6 kmh 29.81 in1009.5 mb 0.00 in0.0 mm 0.00 in0.0 mm 0.01 in0.3 mm
07:40 PM 28.9°F-1.7°C 24.7°F-4.1°C 84% 16.7 mph N26.9 kmh N 20.2 mph32.5 kmh 29.81 in1009.5 mb 0.00 in0.0 mm 0.00 in0.0 mm 0.01 in0.3 mm
07:50 PM 30.2°F-1.0°C 23.2°F-4.9°C 75% 19.0 mph N30.6 kmh N 23.4 mph37.7 kmh 29.81 in1009.5 mb 0.00 in0.0 mm 0.00 in0.0 mm 0.01 in0.3 mm
08:00 PM 29.7°F-1.3°C 23.6°F-4.7°C 78% 21.7 mph NNE34.9 kmh NNE 25.1 mph40.4 kmh 29.80 in1009.1 mb 0.00 in0.0 mm 0.00 in0.0 mm 0.01 in0.3 mm
08:10 PM 29.7°F-1.3°C 24.2°F-4.3°C 80% 19.2 mph N30.9 kmh N 17.5 mph28.2 kmh 29.81 in1009.5 mb 0.00 in0.0 mm 0.00 in0.0 mm 0.01 in0.3 mm
08:20 PM 28.9°F-1.7°C 24.7°F-4.1°C 84% 18.3 mph N29.5 kmh N 21.7 mph34.9 kmh 29.81 in1009.5 mb 0.00 in0.0 mm 0.00 in0.0 mm 0.01 in0.3 mm
08:30 PM 28.6°F-1.9°C 25.2°F-3.8°C 87% 17.6 mph NNE28.3 kmh NNE 20.2 mph32.5 kmh 29.82 in1009.8 mb 0.00 in0.0 mm 0.00 in0.0 mm 0.01 in0.3 mm
08:40 PM 28.6°F-1.9°C 25.8°F-3.4°C 89% 16.2 mph NE26.1 kmh NE 19.2 mph30.9 kmh 29.82 in1009.8 mb 0.00 in0.0 mm 0.00 in0.0 mm 0.01 in0.3 mm
08:50 PM 29.3°F-1.5°C 25.6°F-3.6°C 86% 16.3 mph N26.2 kmh N 23.4 mph37.7 kmh 29.82 in1009.8 mb 0.00 in0.0 mm 0.00 in0.0 mm 0.01 in0.3 mm
09:00 PM 29.1°F-1.6°C 25.2°F-3.8°C 85% 18.6 mph NE29.9 kmh NE 21.7 mph34.9 kmh 29.82 in1009.8 mb 0.00 in0.0 mm 0.00 in0.0 mm 0.01 in0.3 mm
09:10 PM 29.1°F-1.6°C 25.2°F-3.8°C 85% 21.7 mph NE34.9 kmh NE 20.2 mph32.5 kmh 29.81 in1009.5 mb 0.00 in0.0 mm 0.00 in0.0 mm 0.01 in0.3 mm
09:20 PM 29.1°F-1.6°C 24.6°F-4.1°C 83% 19.4 mph NNE31.2 kmh NNE 20.2 mph32.5 kmh 29.81 in1009.5 mb 0.00 in0.0 mm 0.00 in0.0 mm 0.01 in0.3 mm
09:30 PM 29.5°F-1.4°C 24.7°F-4.1°C 82% 18.0 mph NE29.0 kmh NE 21.7 mph34.9 kmh 29.81 in1009.5 mb 0.00 in0.0 mm 0.00 in0.0 mm 0.01 in0.3 mm
09:40 PM 29.1°F-1.6°C 25.2°F-3.8°C 85% 14.4 mph NE23.2 kmh NE 18.5 mph29.8 kmh 29.81 in1009.5 mb 0.00 in0.0 mm 0.00 in0.0 mm 0.01 in0.3 mm
09:50 PM 29.3°F-1.5°C 24.8°F-4.0°C 83% 18.3 mph N29.5 kmh N 23.4 mph37.7 kmh 29.80 in1009.1 mb 0.00 in0.0 mm 0.00 in0.0 mm 0.01 in0.3 mm
10:00 PM 28.8°F-1.8°C 24.2°F-4.3°C 83% 17.1 mph N27.5 kmh N 21.7 mph34.9 kmh 29.81 in1009.5 mb 0.00 in0.0 mm 0.00 in0.0 mm 0.01 in0.3 mm
10:10 PM 29.1°F-1.6°C 24.9°F-3.9°C 84% 15.2 mph N24.5 kmh N 15.0 mph24.1 kmh 29.81 in1009.5 mb 0.00 in0.0 mm 0.00 in0.0 mm 0.01 in0.3 mm
10:20 PM 29.5°F-1.4°C 24.1°F-4.4°C 80% 16.9 mph NE27.2 kmh NE 19.2 mph30.9 kmh 29.81 in1009.5 mb 0.00 in0.0 mm 0.00 in0.0 mm 0.01 in0.3 mm
10:30 PM 29.8°F-1.2°C 23.5°F-4.7°C 77% 14.7 mph NE23.7 kmh NE 25.1 mph40.4 kmh 29.81 in1009.5 mb 0.00 in0.0 mm 0.00 in0.0 mm 0.01 in0.3 mm
10:40 PM 28.8°F-1.8°C 24.5°F-4.2°C 84% 19.0 mph N30.6 kmh N 24.4 mph39.3 kmh 29.81 in1009.5 mb 0.00 in0.0 mm 0.00 in0.0 mm 0.01 in0.3 mm
10:50 PM 28.4°F-2.0°C 24.7°F-4.1°C 86% 15.6 mph N25.1 kmh N 17.5 mph28.2 kmh 29.81 in1009.5 mb 0.00 in0.0 mm 0.00 in0.0 mm 0.01 in0.3 mm
11:00 PM 29.1°F-1.6°C 24.6°F-4.1°C 83% 13.0 mph N20.9 kmh N 18.5 mph29.8 kmh 29.81 in1009.5 mb 0.00 in0.0 mm 0.00 in0.0 mm 0.01 in0.3 mm
11:10 PM 28.9°F-1.7°C 24.1°F-4.4°C 82% 10.7 mph N17.2 kmh N 17.5 mph28.2 kmh 29.81 in1009.5 mb 0.00 in0.0 mm 0.00 in0.0 mm 0.01 in0.3 mm
11:20 PM 29.3°F-1.5°C 23.6°F-4.7°C 79% 15.7 mph NE25.3 kmh NE 21.7 mph34.9 kmh 29.82 in1009.8 mb 0.00 in0.0 mm 0.00 in0.0 mm 0.01 in0.3 mm
11:30 PM 29.1°F-1.6°C 23.1°F-4.9°C 78% 17.0 mph N27.4 kmh N 20.9 mph33.6 kmh 29.81 in1009.5 mb 0.00 in0.0 mm 0.00 in0.0 mm 0.01 in0.3 mm
11:40 PM 28.6°F-1.9°C 24.1°F-4.4°C 83% 14.9 mph N24.0 kmh N 21.7 mph34.9 kmh 29.82 in1009.8 mb 0.00 in0.0 mm 0.00 in0.0 mm 0.01 in0.3 mm
11:50 PM 28.0°F-2.2°C 24.7°F-4.1°C 87% 14.7 mph N23.7 kmh N 19.2 mph30.9 kmh 29.81 in1009.5 mb 0.00 in0.0 mm 0.00 in0.0 mm 0.01 in0.3 mm